sensor_id;sensor_type;location;lat;lon;timestamp;P1;durP1;ratioP1;P2;durP2;ratioP2
15474;SDS011;7839;50.462;9.678;2023-08-24T00:05:40;0.20;;;0.20;;
15474;SDS011;7839;50.462;9.678;2023-08-24T00:12:20;0.32;;;0.32;;
15474;SDS011;7839;50.462;9.678;2023-08-24T00:19:00;0.30;;;0.30;;
15474;SDS011;7839;50.462;9.678;2023-08-24T00:25:40;0.40;;;0.40;;
15474;SDS011;7839;50.462;9.678;2023-08-24T00:32:21;0.25;;;0.25;;
15474;SDS011;7839;50.462;9.678;2023-08-24T00:39:02;0.20;;;0.20;;
15474;SDS011;7839;50.462;9.678;2023-08-24T00:45:42;0.20;;;0.20;;
15474;SDS011;7839;50.462;9.678;2023-08-24T00:52:24;0.30;;;0.30;;
15474;SDS011;7839;50.462;9.678;2023-08-24T00:59:05;0.47;;;0.47;;
15474;SDS011;7839;50.462;9.678;2023-08-24T01:05:45;0.30;;;0.30;;
15474;SDS011;7839;50.462;9.678;2023-08-24T01:12:28;0.30;;;0.30;;
15474;SDS011;7839;50.462;9.678;2023-08-24T01:19:18;0.30;;;0.30;;
15474;SDS011;7839;50.462;9.678;2023-08-24T01:32:45;0.30;;;0.30;;
15474;SDS011;7839;50.462;9.678;2023-08-24T01:39:30;0.40;;;0.40;;
15474;SDS011;7839;50.462;9.678;2023-08-24T01:46:11;0.25;;;0.25;;
15474;SDS011;7839;50.462;9.678;2023-08-24T01:52:52;0.28;;;0.28;;
15474;SDS011;7839;50.462;9.678;2023-08-24T01:59:32;0.30;;;0.30;;
15474;SDS011;7839;50.462;9.678;2023-08-24T02:06:13;0.20;;;0.20;;
15474;SDS011;7839;50.462;9.678;2023-08-24T02:12:53;0.20;;;0.20;;
15474;SDS011;7839;50.462;9.678;2023-08-24T02:19:33;0.30;;;0.30;;
15474;SDS011;7839;50.462;9.678;2023-08-24T02:26:14;0.25;;;0.25;;
15474;SDS011;7839;50.462;9.678;2023-08-24T02:32:54;0.15;;;0.15;;
15474;SDS011;7839;50.462;9.678;2023-08-24T02:39:34;0.20;;;0.20;;
15474;SDS011;7839;50.462;9.678;2023-08-24T02:46:15;0.27;;;0.27;;
15474;SDS011;7839;50.462;9.678;2023-08-24T02:52:55;0.30;;;0.30;;
15474;SDS011;7839;50.462;9.678;2023-08-24T02:59:38;0.25;;;0.25;;
15474;SDS011;7839;50.462;9.678;2023-08-24T03:06:19;0.20;;;0.20;;
15474;SDS011;7839;50.462;9.678;2023-08-24T03:12:59;0.20;;;0.20;;
15474;SDS011;7839;50.462;9.678;2023-08-24T03:19:39;0.15;;;0.15;;
15474;SDS011;7839;50.462;9.678;2023-08-24T03:26:19;0.20;;;0.20;;
15474;SDS011;7839;50.462;9.678;2023-08-24T03:33:00;0.20;;;0.20;;
15474;SDS011;7839;50.462;9.678;2023-08-24T03:39:41;0.30;;;0.30;;
15474;SDS011;7839;50.462;9.678;2023-08-24T03:46:21;0.30;;;0.30;;
15474;SDS011;7839;50.462;9.678;2023-08-24T03:53:01;0.32;;;0.32;;
15474;SDS011;7839;50.462;9.678;2023-08-24T03:59:42;0.20;;;0.20;;
15474;SDS011;7839;50.462;9.678;2023-08-24T04:06:22;0.63;;;0.40;;
15474;SDS011;7839;50.462;9.678;2023-08-24T04:13:02;0.20;;;0.20;;
15474;SDS011;7839;50.462;9.678;2023-08-24T04:19:42;0.10;;;0.10;;
15474;SDS011;7839;50.462;9.678;2023-08-24T04:26:23;0.30;;;0.30;;
15474;SDS011;7839;50.462;9.678;2023-08-24T04:33:03;0.28;;;0.28;;
15474;SDS011;7839;50.462;9.678;2023-08-24T04:39:44;3.22;;;2.15;;
15474;SDS011;7839;50.462;9.678;2023-08-24T04:46:24;0.30;;;0.30;;
15474;SDS011;7839;50.462;9.678;2023-08-24T04:53:04;0.20;;;0.20;;
15474;SDS011;7839;50.462;9.678;2023-08-24T04:59:44;0.30;;;0.30;;
15474;SDS011;7839;50.462;9.678;2023-08-24T05:06:24;0.30;;;0.30;;
15474;SDS011;7839;50.462;9.678;2023-08-24T05:13:04;0.20;;;0.20;;
15474;SDS011;7839;50.462;9.678;2023-08-24T05:19:45;0.22;;;0.22;;
15474;SDS011;7839;50.462;9.678;2023-08-24T05:26:25;0.20;;;0.20;;
15474;SDS011;7839;50.462;9.678;2023-08-24T05:33:05;4.10;;;2.50;;
15474;SDS011;7839;50.462;9.678;2023-08-24T05:39:45;3.10;;;2.22;;
15474;SDS011;7839;50.462;9.678;2023-08-24T05:46:25;3.92;;;2.30;;
15474;SDS011;7839;50.462;9.678;2023-08-24T05:53:06;3.90;;;2.30;;
15474;SDS011;7839;50.462;9.678;2023-08-24T05:59:46;1.00;;;0.80;;
15474;SDS011;7839;50.462;9.678;2023-08-24T06:06:26;0.60;;;0.60;;
15474;SDS011;7839;50.462;9.678;2023-08-24T06:13:06;0.60;;;0.60;;
15474;SDS011;7839;50.462;9.678;2023-08-24T06:19:46;0.73;;;0.73;;
15474;SDS011;7839;50.462;9.678;2023-08-24T06:26:26;0.52;;;0.52;;
15474;SDS011;7839;50.462;9.678;2023-08-24T06:33:07;0.65;;;0.60;;
15474;SDS011;7839;50.462;9.678;2023-08-24T06:39:47;0.60;;;0.60;;
15474;SDS011;7839;50.462;9.678;2023-08-24T06:46:27;0.50;;;0.50;;
15474;SDS011;7839;50.462;9.678;2023-08-24T06:53:07;0.65;;;0.65;;
15474;SDS011;7839;50.462;9.678;2023-08-24T06:59:48;2.33;;;0.80;;
15474;SDS011;7839;50.462;9.678;2023-08-24T07:06:28;0.60;;;0.60;;
15474;SDS011;7839;50.462;9.678;2023-08-24T07:13:08;3.70;;;1.80;;
15474;SDS011;7839;50.462;9.678;2023-08-24T07:19:49;0.70;;;0.70;;
15474;SDS011;7839;50.462;9.678;2023-08-24T07:26:29;0.80;;;0.80;;
15474;SDS011;7839;50.462;9.678;2023-08-24T07:33:10;0.70;;;0.70;;
15474;SDS011;7839;50.462;9.678;2023-08-24T07:39:51;0.47;;;0.47;;
15474;SDS011;7839;50.462;9.678;2023-08-24T07:46:31;1.10;;;0.65;;
15474;SDS011;7839;50.462;9.678;2023-08-24T07:53:11;0.50;;;0.50;;
15474;SDS011;7839;50.462;9.678;2023-08-24T07:59:51;0.70;;;0.68;;
15474;SDS011;7839;50.462;9.678;2023-08-24T08:06:32;0.95;;;0.60;;
15474;SDS011;7839;50.462;9.678;2023-08-24T08:13:12;2.40;;;2.20;;
15474;SDS011;7839;50.462;9.678;2023-08-24T08:19:56;0.80;;;0.80;;
15474;SDS011;7839;50.462;9.678;2023-08-24T08:26:36;0.63;;;0.63;;
15474;SDS011;7839;50.462;9.678;2023-08-24T08:33:16;0.68;;;0.68;;
15474;SDS011;7839;50.462;9.678;2023-08-24T08:39:56;5.30;;;3.25;;
15474;SDS011;7839;50.462;9.678;2023-08-24T08:46:37;0.77;;;0.77;;
15474;SDS011;7839;50.462;9.678;2023-08-24T08:53:20;1.48;;;0.60;;
15474;SDS011;7839;50.462;9.678;2023-08-24T09:00:00;3.38;;;1.85;;
15474;SDS011;7839;50.462;9.678;2023-08-24T09:06:40;4.05;;;2.50;;
15474;SDS011;7839;50.462;9.678;2023-08-24T09:13:21;0.65;;;0.65;;
15474;SDS011;7839;50.462;9.678;2023-08-24T09:20:05;6.07;;;3.45;;
15474;SDS011;7839;50.462;9.678;2023-08-24T09:26:47;3.75;;;3.08;;
15474;SDS011;7839;50.462;9.678;2023-08-24T09:33:27;3.10;;;2.80;;
15474;SDS011;7839;50.462;9.678;2023-08-24T09:40:07;1.35;;;1.05;;
15474;SDS011;7839;50.462;9.678;2023-08-24T09:46:48;3.80;;;3.03;;
15474;SDS011;7839;50.462;9.678;2023-08-24T09:53:31;3.47;;;2.25;;
15474;SDS011;7839;50.462;9.678;2023-08-24T10:00:13;3.83;;;2.78;;
15474;SDS011;7839;50.462;9.678;2023-08-24T10:06:58;1.20;;;1.20;;
15474;SDS011;7839;50.462;9.678;2023-08-24T10:20:39;1.67;;;1.58;;
15474;SDS011;7839;50.462;9.678;2023-08-24T10:27:19;1.83;;;1.40;;
15474;SDS011;7839;50.462;9.678;2023-08-24T10:34:00;1.60;;;1.50;;
15474;SDS011;7839;50.462;9.678;2023-08-24T10:40:41;2.38;;;1.80;;
15474;SDS011;7839;50.462;9.678;2023-08-24T10:47:24;1.75;;;1.65;;
15474;SDS011;7839;50.462;9.678;2023-08-24T10:54:05;2.20;;;2.00;;
15474;SDS011;7839;50.462;9.678;2023-08-24T11:00:48;2.30;;;2.15;;
15474;SDS011;7839;50.462;9.678;2023-08-24T11:07:28;2.65;;;2.22;;
15474;SDS011;7839;50.462;9.678;2023-08-24T11:20:56;2.30;;;2.10;;
15474;SDS011;7839;50.462;9.678;2023-08-24T11:27:39;2.65;;;2.45;;
15474;SDS011;7839;50.462;9.678;2023-08-24T11:34:21;2.45;;;2.25;;
15474;SDS011;7839;50.462;9.678;2023-08-24T11:41:01;2.55;;;2.35;;
15474;SDS011;7839;50.462;9.678;2023-08-24T11:47:50;2.55;;;2.33;;
15474;SDS011;7839;50.462;9.678;2023-08-24T11:54:33;2.92;;;2.60;;
15474;SDS011;7839;50.462;9.678;2023-08-24T12:01:13;3.53;;;2.50;;
15474;SDS011;7839;50.462;9.678;2023-08-24T12:07:54;2.55;;;2.35;;
15474;SDS011;7839;50.462;9.678;2023-08-24T12:14:41;2.60;;;2.40;;
15474;SDS011;7839;50.462;9.678;2023-08-24T12:21:22;2.63;;;2.38;;
15474;SDS011;7839;50.462;9.678;2023-08-24T12:28:10;2.38;;;2.28;;
15474;SDS011;7839;50.462;9.678;2023-08-24T12:34:50;2.80;;;2.60;;
15474;SDS011;7839;50.462;9.678;2023-08-24T12:41:37;2.72;;;2.53;;
15474;SDS011;7839;50.462;9.678;2023-08-24T12:48:17;3.28;;;2.30;;
15474;SDS011;7839;50.462;9.678;2023-08-24T12:54:57;2.40;;;2.30;;
15474;SDS011;7839;50.462;9.678;2023-08-24T13:01:37;3.20;;;2.50;;
15474;SDS011;7839;50.462;9.678;2023-08-24T13:08:17;2.90;;;2.28;;
15474;SDS011;7839;50.462;9.678;2023-08-24T13:14:58;2.60;;;2.35;;
15474;SDS011;7839;50.462;9.678;2023-08-24T13:21:38;2.80;;;2.60;;
15474;SDS011;7839;50.462;9.678;2023-08-24T13:28:18;2.72;;;2.53;;
15474;SDS011;7839;50.462;9.678;2023-08-24T13:34:58;2.30;;;2.20;;
15474;SDS011;7839;50.462;9.678;2023-08-24T13:41:38;2.50;;;2.30;;
15474;SDS011;7839;50.462;9.678;2023-08-24T13:48:19;2.70;;;2.50;;
15474;SDS011;7839;50.462;9.678;2023-08-24T13:54:59;2.85;;;2.65;;
15474;SDS011;7839;50.462;9.678;2023-08-24T14:01:41;3.17;;;2.97;;
15474;SDS011;7839;50.462;9.678;2023-08-24T14:08:22;3.08;;;2.75;;
15474;SDS011;7839;50.462;9.678;2023-08-24T14:15:02;2.90;;;2.70;;
15474;SDS011;7839;50.462;9.678;2023-08-24T14:21:42;2.80;;;2.60;;
15474;SDS011;7839;50.462;9.678;2023-08-24T14:28:24;3.00;;;2.67;;
15474;SDS011;7839;50.462;9.678;2023-08-24T14:35:04;3.13;;;2.63;;
15474;SDS011;7839;50.462;9.678;2023-08-24T14:41:44;2.70;;;2.50;;
15474;SDS011;7839;50.462;9.678;2023-08-24T14:48:24;3.13;;;2.83;;
15474;SDS011;7839;50.462;9.678;2023-08-24T14:55:06;2.78;;;2.58;;
15474;SDS011;7839;50.462;9.678;2023-08-24T15:01:48;2.70;;;2.50;;
15474;SDS011;7839;50.462;9.678;2023-08-24T15:08:28;2.80;;;2.60;;
15474;SDS011;7839;50.462;9.678;2023-08-24T15:15:08;2.85;;;2.65;;
15474;SDS011;7839;50.462;9.678;2023-08-24T15:21:49;2.67;;;2.47;;
15474;SDS011;7839;50.462;9.678;2023-08-24T15:28:36;2.53;;;2.40;;
15474;SDS011;7839;50.462;9.678;2023-08-24T15:35:17;3.97;;;2.60;;
15474;SDS011;7839;50.462;9.678;2023-08-24T15:41:57;2.78;;;2.58;;
15474;SDS011;7839;50.462;9.678;2023-08-24T15:48:37;3.17;;;2.70;;
15474;SDS011;7839;50.462;9.678;2023-08-24T15:55:19;2.72;;;2.53;;
15474;SDS011;7839;50.462;9.678;2023-08-24T16:01:59;2.83;;;2.63;;
15474;SDS011;7839;50.462;9.678;2023-08-24T16:08:39;2.70;;;2.50;;
15474;SDS011;7839;50.462;9.678;2023-08-24T16:15:20;2.10;;;2.00;;
15474;SDS011;7839;50.462;9.678;2023-08-24T16:22:00;3.35;;;2.88;;
15474;SDS011;7839;50.462;9.678;2023-08-24T16:28:40;2.65;;;2.55;;
15474;SDS011;7839;50.462;9.678;2023-08-24T16:35:20;2.33;;;2.22;;
15474;SDS011;7839;50.462;9.678;2023-08-24T16:42:00;2.50;;;2.30;;
15474;SDS011;7839;50.462;9.678;2023-08-24T16:48:41;2.38;;;2.28;;
15474;SDS011;7839;50.462;9.678;2023-08-24T16:55:21;2.20;;;2.10;;
15474;SDS011;7839;50.462;9.678;2023-08-24T17:02:01;2.67;;;2.47;;
15474;SDS011;7839;50.462;9.678;2023-08-24T17:08:41;2.17;;;2.08;;
15474;SDS011;7839;50.462;9.678;2023-08-24T17:15:21;2.05;;;1.95;;
15474;SDS011;7839;50.462;9.678;2023-08-24T17:22:02;2.00;;;1.90;;
15474;SDS011;7839;50.462;9.678;2023-08-24T17:28:43;1.98;;;1.88;;
15474;SDS011;7839;50.462;9.678;2023-08-24T17:35:23;2.30;;;2.20;;
15474;SDS011;7839;50.462;9.678;2023-08-24T17:42:03;2.20;;;2.10;;
15474;SDS011;7839;50.462;9.678;2023-08-24T17:48:44;2.30;;;2.20;;
15474;SDS011;7839;50.462;9.678;2023-08-24T17:55:25;2.25;;;2.05;;
15474;SDS011;7839;50.462;9.678;2023-08-24T18:02:05;3.05;;;2.83;;
15474;SDS011;7839;50.462;9.678;2023-08-24T18:08:45;2.13;;;1.95;;
15474;SDS011;7839;50.462;9.678;2023-08-24T18:15:26;2.58;;;2.10;;
15474;SDS011;7839;50.462;9.678;2023-08-24T18:22:06;2.53;;;2.33;;
15474;SDS011;7839;50.462;9.678;2023-08-24T18:28:46;2.50;;;2.30;;
15474;SDS011;7839;50.462;9.678;2023-08-24T18:35:26;2.22;;;2.13;;
15474;SDS011;7839;50.462;9.678;2023-08-24T18:42:06;2.53;;;2.33;;
15474;SDS011;7839;50.462;9.678;2023-08-24T18:48:47;4.05;;;3.65;;
15474;SDS011;7839;50.462;9.678;2023-08-24T18:55:27;3.00;;;2.65;;
15474;SDS011;7839;50.462;9.678;2023-08-24T19:02:07;3.10;;;2.90;;
15474;SDS011;7839;50.462;9.678;2023-08-24T19:08:47;2.45;;;2.35;;
15474;SDS011;7839;50.462;9.678;2023-08-24T19:15:27;4.63;;;4.00;;
15474;SDS011;7839;50.462;9.678;2023-08-24T19:22:08;2.95;;;2.75;;
15474;SDS011;7839;50.462;9.678;2023-08-24T19:28:48;3.10;;;2.90;;
15474;SDS011;7839;50.462;9.678;2023-08-24T19:35:28;3.85;;;2.72;;
15474;SDS011;7839;50.462;9.678;2023-08-24T19:42:08;2.67;;;2.50;;
15474;SDS011;7839;50.462;9.678;2023-08-24T19:48:49;3.13;;;2.72;;
15474;SDS011;7839;50.462;9.678;2023-08-24T19:55:29;2.63;;;2.42;;
15474;SDS011;7839;50.462;9.678;2023-08-24T20:02:09;2.90;;;2.70;;
15474;SDS011;7839;50.462;9.678;2023-08-24T20:08:50;2.42;;;2.25;;
15474;SDS011;7839;50.462;9.678;2023-08-24T20:15:30;2.50;;;2.30;;
15474;SDS011;7839;50.462;9.678;2023-08-24T20:22:10;2.50;;;2.30;;
15474;SDS011;7839;50.462;9.678;2023-08-24T20:28:51;2.30;;;2.10;;
15474;SDS011;7839;50.462;9.678;2023-08-24T20:35:31;1.70;;;1.60;;
15474;SDS011;7839;50.462;9.678;2023-08-24T20:42:14;2.00;;;1.90;;
15474;SDS011;7839;50.462;9.678;2023-08-24T20:48:55;1.83;;;1.73;;
15474;SDS011;7839;50.462;9.678;2023-08-24T20:55:37;2.03;;;1.92;;
15474;SDS011;7839;50.462;9.678;2023-08-24T21:02:17;1.77;;;1.67;;
15474;SDS011;7839;50.462;9.678;2023-08-24T21:08:57;1.85;;;1.75;;
15474;SDS011;7839;50.462;9.678;2023-08-24T21:15:38;1.77;;;1.67;;
15474;SDS011;7839;50.462;9.678;2023-08-24T21:22:18;1.80;;;1.70;;
15474;SDS011;7839;50.462;9.678;2023-08-24T21:28:59;1.50;;;1.40;;
15474;SDS011;7839;50.462;9.678;2023-08-24T21:35:39;1.65;;;1.55;;
15474;SDS011;7839;50.462;9.678;2023-08-24T21:42:19;7.80;;;4.53;;
15474;SDS011;7839;50.462;9.678;2023-08-24T21:48:59;1.73;;;1.63;;
15474;SDS011;7839;50.462;9.678;2023-08-24T21:55:39;1.48;;;1.38;;
15474;SDS011;7839;50.462;9.678;2023-08-24T22:02:20;1.52;;;1.42;;
15474;SDS011;7839;50.462;9.678;2023-08-24T22:09:00;1.48;;;1.38;;
15474;SDS011;7839;50.462;9.678;2023-08-24T22:15:41;1.55;;;1.30;;
15474;SDS011;7839;50.462;9.678;2023-08-24T22:22:21;1.48;;;1.35;;
15474;SDS011;7839;50.462;9.678;2023-08-24T22:29:01;1.50;;;1.40;;
15474;SDS011;7839;50.462;9.678;2023-08-24T22:35:42;1.00;;;1.00;;
15474;SDS011;7839;50.462;9.678;2023-08-24T22:42:23;1.30;;;1.30;;
15474;SDS011;7839;50.462;9.678;2023-08-24T22:49:03;1.02;;;1.02;;
15474;SDS011;7839;50.462;9.678;2023-08-24T22:55:46;1.15;;;1.15;;
15474;SDS011;7839;50.462;9.678;2023-08-24T23:02:26;1.17;;;1.15;;
15474;SDS011;7839;50.462;9.678;2023-08-24T23:09:07;1.00;;;1.00;;
15474;SDS011;7839;50.462;9.678;2023-08-24T23:15:47;0.90;;;0.90;;
15474;SDS011;7839;50.462;9.678;2023-08-24T23:22:27;1.42;;;0.88;;
15474;SDS011;7839;50.462;9.678;2023-08-24T23:29:07;1.08;;;1.08;;
15474;SDS011;7839;50.462;9.678;2023-08-24T23:35:48;1.00;;;1.00;;
15474;SDS011;7839;50.462;9.678;2023-08-24T23:42:28;0.70;;;0.70;;
15474;SDS011;7839;50.462;9.678;2023-08-24T23:49:08;1.08;;;1.00;;
15474;SDS011;7839;50.462;9.678;2023-08-24T23:55:48;0.77;;;0.77;;
